Other Surface Observations
Issued by NWS Missoula, MT

Home | Current Version | Previous Version | Text Only | Print | Product List | Glossary On
Versions: 1 2 3 4 5 6 7 8 9 10 11 12 13 14 15 16 17 18 19 20 21 22 23 24 25 26 27 28 29 30 31 32 33 34 35 36 37 38 39 40 41 42 43 44 45 46 47 48 49 50
136
SXUS55 KMSO 291213
OSOMSO
MONTANA AWOS SUMMARY
NATIONAL WEATHER SERVICE MISSOULA MT
612 AM MDT FRI JUL 29 2016

Montana AWOS Reports

LAUREL      |K6S8 291155Z AUTO 00000KT 40SM 13/09 A3008 RMK AO1 T01330094
EKALAKA     |K97M 291155Z AUTO 11006KT 25SM 14/13 A3009 RMK AO1 T01440128
PLAINS      |KS34 291155Z AUTO 00000KT 40SM 12/07 A3006 RMK AO1 T01220072
TWIN BRIDGES|K7S1 291155Z AUTO 00000KT 40SM 09/03 A3013 RMK AO1 T00940033
SCOBEY      |K9S2 291155Z AUTO 00000KT 25SM 09/02 A3008 RMK AO1 T00940022
LAUREL      |K6S8 291155Z AUTO 00000KT 40SM 13/09 A3008 RMK AO1 T01330094




USA.gov is the U.S. government's official web portal to all federal, state and local government web resources and services.